createdAt,value
2022-11-28T00:02:46.584Z,1.70
2022-11-28T00:07:53.593Z,1.70
2022-11-28T00:13:00.699Z,1.60
2022-11-28T00:18:10.375Z,1.50
2022-11-28T00:23:17.387Z,1.50
2022-11-28T00:28:25.075Z,1.30
2022-11-28T00:33:33.730Z,1.40
2022-11-28T00:38:40.741Z,1.20
2022-11-28T00:43:49.738Z,1.30
2022-11-28T00:48:57.920Z,1.20
2022-11-28T00:54:08.391Z,1.20
2022-11-28T00:59:15.385Z,1.20
2022-11-28T01:04:22.487Z,1.10
2022-11-28T01:09:30.169Z,1.00
2022-11-28T01:14:37.197Z,1.00
2022-11-28T01:19:45.931Z,0.90
2022-11-28T01:24:52.998Z,1.00
2022-11-28T01:30:00.225Z,1.00
2022-11-28T01:35:09.126Z,1.00
2022-11-28T01:40:16.726Z,1.00
2022-11-28T01:45:33.449Z,1.00
2022-11-28T01:50:41.362Z,0.90
2022-11-28T01:55:57.950Z,0.80
2022-11-28T02:01:07.376Z,0.80
2022-11-28T02:06:19.546Z,0.80
2022-11-28T02:11:57.167Z,0.80
2022-11-28T02:17:20.135Z,0.90
2022-11-28T02:22:43.821Z,1.00
2022-11-28T02:28:20.082Z,1.10
2022-11-28T02:33:43.371Z,0.90
2022-11-28T02:39:25.809Z,0.80
2022-11-28T02:44:48.660Z,0.80
2022-11-28T02:50:20.680Z,0.80
2022-11-28T02:55:28.499Z,0.80
2022-11-28T03:00:39.804Z,0.70
2022-11-28T03:06:11.909Z,0.80
2022-11-28T03:11:42.440Z,0.80
2022-11-28T03:16:53.603Z,0.80
2022-11-28T03:22:11.021Z,0.60
2022-11-28T03:27:22.534Z,0.50
2022-11-28T03:32:33.273Z,0.50
2022-11-28T03:37:44.554Z,0.50
2022-11-28T03:42:55.650Z,0.60
2022-11-28T03:48:06.820Z,0.40
2022-11-28T03:53:26.338Z,0.60
2022-11-28T03:58:47.384Z,0.70
2022-11-28T04:04:08.095Z,0.50
2022-11-28T04:09:21.850Z,0.30
2022-11-28T04:14:55.438Z,0.40
2022-11-28T04:20:07.065Z,0.40
2022-11-28T04:25:17.844Z,0.60
2022-11-28T04:30:25.239Z,0.50
2022-11-28T04:35:40.809Z,0.40
2022-11-28T04:40:52.109Z,0.60
2022-11-28T04:46:08.932Z,0.50
2022-11-28T04:51:42.383Z,0.40
2022-11-28T04:57:19.461Z,0.40
2022-11-28T05:02:28.029Z,0.30
2022-11-28T05:07:37.008Z,0.20
2022-11-28T05:12:44.057Z,0.20
2022-11-28T05:17:50.828Z,0.20
2022-11-28T05:22:57.480Z,0.10
2022-11-28T05:28:05.900Z,0.00
2022-11-28T05:33:13.364Z,0.10
2022-11-28T05:38:21.449Z,0.00
2022-11-28T05:43:28.544Z,0.00
2022-11-28T05:48:36.047Z,-0.10
2022-11-28T05:53:43.307Z,-0.20
2022-11-28T05:58:50.249Z,-0.10
2022-11-28T06:04:02.250Z,-0.10
2022-11-28T06:09:09.515Z,-0.10
2022-11-28T06:14:16.578Z,-0.10
2022-11-28T06:19:23.336Z,-0.20
2022-11-28T06:24:30.986Z,-0.10
2022-11-28T06:29:38.493Z,-0.20
2022-11-28T06:34:45.648Z,-0.10
2022-11-28T06:39:52.849Z,-0.20
2022-11-28T06:45:01.247Z,-0.30
2022-11-28T06:50:10.596Z,-0.20
2022-11-28T06:55:17.959Z,-0.30
2022-11-28T07:00:24.753Z,-0.10
2022-11-28T07:05:31.605Z,0.00
2022-11-28T07:10:39.456Z,-0.10
2022-11-28T07:15:53.330Z,0.00
2022-11-28T07:21:00.688Z,0.10
2022-11-28T07:26:08.072Z,0.20
2022-11-28T07:31:18.439Z,0.30
2022-11-28T07:36:28.338Z,0.30
2022-11-28T07:41:35.188Z,0.40
2022-11-28T07:46:42.328Z,0.40
2022-11-28T07:51:49.179Z,0.40
2022-11-28T07:57:12.579Z,0.60
2022-11-28T08:02:05.211Z,0.50
2022-11-28T08:07:15.459Z,0.70
2022-11-28T08:12:22.462Z,0.60
2022-11-28T08:17:29.542Z,0.70
2022-11-28T08:22:36.577Z,1.00
2022-11-28T08:27:43.676Z,1.30
2022-11-28T08:32:50.567Z,1.40
2022-11-28T08:38:01.626Z,1.40
2022-11-28T08:43:07.532Z,1.40
2022-11-28T08:48:14.614Z,1.40
2022-11-28T08:53:21.777Z,1.40
2022-11-28T08:58:28.773Z,1.70
2022-11-28T09:03:35.926Z,1.70
2022-11-28T09:08:43.141Z,1.80
2022-11-28T09:13:51.140Z,1.70
2022-11-28T09:18:59.730Z,1.70
2022-11-28T09:24:07.748Z,1.70
2022-11-28T09:29:14.917Z,1.80
2022-11-28T09:34:22.082Z,1.90
2022-11-28T09:39:44.108Z,2.00
2022-11-28T09:44:53.957Z,2.10
2022-11-28T09:50:09.572Z,2.10
2022-11-28T09:55:23.642Z,2.00
2022-11-28T10:00:40.217Z,2.00
2022-11-28T10:06:12.987Z,2.10
2022-11-28T10:11:50.010Z,2.20
2022-11-28T10:17:24.887Z,2.20
2022-11-28T10:22:33.556Z,2.20
2022-11-28T10:27:40.259Z,2.30
2022-11-28T10:32:51.728Z,2.50
2022-11-28T10:37:59.163Z,2.40
2022-11-28T10:43:22.424Z,2.50
2022-11-28T10:48:42.302Z,2.40
2022-11-28T10:54:27.771Z,2.40
2022-11-28T11:00:07.407Z,2.30
2022-11-28T11:05:24.497Z,2.50
2022-11-28T11:10:43.628Z,2.40
2022-11-28T11:15:54.984Z,2.70
2022-11-28T11:21:24.683Z,2.60
2022-11-28T11:26:35.721Z,2.70
2022-11-28T11:32:22.170Z,2.80
2022-11-28T11:37:39.178Z,2.60
2022-11-28T11:42:53.654Z,2.70
2022-11-28T11:48:00.688Z,2.50
2022-11-28T11:53:16.427Z,2.70
2022-11-28T11:58:28.024Z,2.90
2022-11-28T12:03:51.112Z,2.90
2022-11-28T12:09:20.861Z,3.00
2022-11-28T12:14:32.358Z,2.80
2022-11-28T12:19:58.828Z,2.80
2022-11-28T12:25:25.378Z,2.80
2022-11-28T12:31:15.513Z,2.80
2022-11-28T12:36:51.083Z,2.80
2022-11-28T12:42:11.164Z,2.50
2022-11-28T12:47:34.349Z,2.50
2022-11-28T12:53:13.899Z,2.40
2022-11-28T12:58:40.200Z,2.60
2022-11-28T13:04:09.238Z,2.60
2022-11-28T13:09:40.219Z,2.40
2022-11-28T13:15:15.252Z,2.50
2022-11-28T13:20:31.786Z,2.50
2022-11-28T13:25:54.894Z,2.50
2022-11-28T13:31:27.176Z,2.60
2022-11-28T13:42:36.576Z,2.40
2022-11-28T13:47:35.461Z,2.10
2022-11-28T13:52:44.397Z,2.00
2022-11-28T13:57:50.871Z,2.00
2022-11-28T14:03:00.453Z,2.10
2022-11-28T14:08:08.736Z,2.10
2022-11-28T14:13:28.832Z,2.00
2022-11-28T14:19:06.570Z,2.10
2022-11-28T14:24:47.837Z,2.20
2022-11-28T14:29:57.337Z,2.10
2022-11-28T14:35:07.189Z,2.10
2022-11-28T14:40:52.687Z,1.80
2022-11-28T14:46:28.717Z,1.70
2022-11-28T14:52:16.036Z,1.70
2022-11-28T14:57:06.639Z,1.60
2022-11-28T15:02:23.999Z,1.50
2022-11-28T15:07:53.027Z,1.40
2022-11-28T15:13:04.313Z,1.30
2022-11-28T15:18:13.129Z,1.20
2022-11-28T15:23:36.087Z,1.10
2022-11-28T15:28:43.834Z,1.00
2022-11-28T15:33:52.028Z,0.90
2022-11-28T15:38:59.584Z,0.90
2022-11-28T15:44:06.464Z,0.90
2022-11-28T15:49:32.342Z,1.00
2022-11-28T15:54:44.758Z,1.00
2022-11-28T15:59:52.347Z,1.20
2022-11-28T16:05:22.349Z,1.30
2022-11-28T16:10:37.382Z,1.30
2022-11-28T16:15:50.093Z,1.40
2022-11-28T16:20:59.510Z,1.50
2022-11-28T16:26:34.535Z,1.40
2022-11-28T16:31:41.431Z,1.40
2022-11-28T16:36:51.784Z,1.40
2022-11-28T16:42:20.578Z,1.50
2022-11-28T16:47:31.748Z,1.60
2022-11-28T16:52:50.473Z,1.50
2022-11-28T16:58:13.298Z,1.50
2022-11-28T17:03:46.462Z,1.40
2022-11-28T17:08:53.827Z,1.50
2022-11-28T17:14:02.689Z,1.50
2022-11-28T17:19:09.546Z,1.50
2022-11-28T17:24:28.392Z,1.60
2022-11-28T17:29:35.657Z,1.50
2022-11-28T17:34:44.230Z,1.60
2022-11-28T17:40:08.770Z,1.60
2022-11-28T17:45:17.001Z,1.50
2022-11-28T17:50:24.083Z,1.50
2022-11-28T17:55:31.622Z,1.60
2022-11-28T18:00:38.597Z,1.50
2022-11-28T18:05:50.107Z,1.60
2022-11-28T18:11:09.275Z,1.70
2022-11-28T18:16:20.231Z,1.80
2022-11-28T18:21:27.273Z,1.80
2022-11-28T18:26:34.242Z,1.70
2022-11-28T18:31:41.001Z,1.90
2022-11-28T18:36:48.332Z,1.80
2022-11-28T18:41:57.068Z,1.70
2022-11-28T18:47:04.337Z,1.70
2022-11-28T18:52:13.844Z,1.70
2022-11-28T18:57:21.382Z,1.70
2022-11-28T19:02:30.589Z,1.80
2022-11-28T19:07:38.010Z,1.80
2022-11-28T19:12:45.230Z,1.90
2022-11-28T19:17:54.434Z,1.90
2022-11-28T19:23:01.469Z,1.80
2022-11-28T19:28:08.326Z,1.90
2022-11-28T19:33:15.819Z,1.90
2022-11-28T19:38:23.406Z,1.90
2022-11-28T19:43:30.630Z,1.90
2022-11-28T19:48:40.188Z,1.80
2022-11-28T19:53:47.235Z,1.60
2022-11-28T19:58:54.283Z,1.80
2022-11-28T20:04:01.573Z,1.80
2022-11-28T20:09:12.046Z,1.80
2022-11-28T20:14:21.583Z,1.70
2022-11-28T20:19:28.622Z,1.70
2022-11-28T20:24:37.347Z,1.80
2022-11-28T20:29:44.641Z,1.80
2022-11-28T20:34:51.812Z,1.80
2022-11-28T20:39:58.717Z,1.60
2022-11-28T20:45:06.427Z,1.60
2022-11-28T20:50:13.048Z,1.60
2022-11-28T20:55:19.844Z,1.70
2022-11-28T21:00:26.998Z,1.70
2022-11-28T21:05:38.127Z,1.70
2022-11-28T21:10:44.743Z,1.70
2022-11-28T21:15:52.326Z,1.60
2022-11-28T21:20:59.143Z,1.80
2022-11-28T21:26:10.491Z,1.80
2022-11-28T21:31:24.288Z,1.80
2022-11-28T21:36:31.659Z,1.60
2022-11-28T21:41:38.251Z,1.60
2022-11-28T21:46:45.047Z,1.60
2022-11-28T21:51:52.124Z,1.40
2022-11-28T21:56:59.216Z,1.40
2022-11-28T22:02:11.486Z,1.40
2022-11-28T22:07:14.789Z,1.50
2022-11-28T22:12:21.520Z,1.50
2022-11-28T22:17:28.335Z,1.50
2022-11-28T22:22:35.413Z,1.50
2022-11-28T22:27:42.266Z,1.50
2022-11-28T22:32:49.199Z,1.40
2022-11-28T22:37:56.666Z,1.30
2022-11-28T22:43:03.387Z,1.50
2022-11-28T22:48:10.432Z,1.40
2022-11-28T22:53:17.949Z,1.30
2022-11-28T22:58:25.137Z,1.30
2022-11-28T23:03:32.105Z,1.40
2022-11-28T23:08:40.761Z,1.40
2022-11-28T23:13:49.547Z,1.40
2022-11-28T23:19:00.573Z,1.30
2022-11-28T23:24:09.144Z,1.30
2022-11-28T23:29:16.830Z,1.30
2022-11-28T23:34:23.687Z,1.40
2022-11-28T23:39:30.957Z,1.40
2022-11-28T23:44:37.804Z,1.40
2022-11-28T23:49:45.056Z,1.30
2022-11-28T23:54:52.027Z,1.20
